Darien, Georgia
Current Conditions -  °F | °C
As of 4:08 PM on Sunday 23 Nov 2014 (Local Time) from KSSI Reporting Station
Haze Haze  
Wind Chill: 65°   Ceiling: 1300
Heat Index: 65°   Visibility: 4mi
Dew Point: 65°   Wind: 12mph
Humidity: 100%   Direction: 150°SSE
Pressure: 29.84"   Gusts: NA
Location:  31.37°N, 81.43°W
Report Text: KSSI 232108Z AUTO 15010KT 4SM BR SCT003 BKN013 OVC065 18/18 A2984 RMK AO2 LTG DSNT NW T01830183
Loading
Personal Weather Stations






























Interactive Weather Map New forecast layout! Learn more

10-Day Weather Forecast

Advertisements
Track Severe Weather on mobile